Time;durP1;ratioP1;P1;durP2;ratioP2;P2;SDS_P1;SDS_P2;PMS_P1;PMS_P2;Temp;Humidity;BMP_temperature;BMP_pressure;BME280_temperature;BME280_humidity;BME280_pressure;Samples;Min_cycle;Max_cycle;Signal;HPM_P1;HPM_P2
2022/04/11 00:01:50;;;;;;;0.52;0.52;;;4.80;99.90;;;;;;5031798;28;20103;-64
2022/04/11 00:04:15;;;;;;;0.10;0.10;;;4.90;99.90;;;;;;5037656;28;20152;-64
2022/04/11 00:06:41;;;;;;;0.10;0.10;;;4.90;99.90;;;;;;5040773;28;20029;-63
2022/04/11 00:09:07;;;;;;;0.40;0.40;;;4.90;99.90;;;;;;5027440;28;20028;-64
2022/04/11 00:11:32;;;;;;;0.10;0.10;;;4.90;99.90;;;;;;5034409;28;20037;-62
2022/04/11 00:13:58;;;;;;;11.18;3.40;;;4.90;99.90;;;;;;5047793;28;20040;-61
2022/04/11 00:16:24;;;;;;;0.10;0.10;;;4.80;99.90;;;;;;5040222;28;20117;-64
2022/04/11 00:18:49;;;;;;;0.30;0.30;;;4.80;99.90;;;;;;5033377;28;20056;-61
2022/04/11 00:21:15;;;;;;;2.25;2.13;;;4.80;99.90;;;;;;5043348;28;20094;-61
2022/04/11 00:23:40;;;;;;;0.20;0.20;;;4.80;99.90;;;;;;5042603;28;20108;-62
2022/04/11 00:26:06;;;;;;;0.10;0.10;;;4.90;99.90;;;;;;5050924;28;20040;-62
2022/04/11 00:28:31;;;;;;;0.10;0.10;;;4.80;99.90;;;;;;5035057;28;20029;-61
2022/04/11 00:30:57;;;;;;;0.10;0.10;;;4.70;99.90;;;;;;5030407;28;20022;-61
2022/04/11 00:33:23;;;;;;;0.10;0.10;;;4.70;99.90;;;;;;5030556;28;20112;-61
2022/04/11 00:35:48;;;;;;;0.10;0.10;;;4.70;99.90;;;;;;5033895;28;20699;-60
2022/04/11 00:38:14;;;;;;;0.10;0.10;;;4.70;99.90;;;;;;5051149;28;20484;-61
2022/04/11 00:40:39;;;;;;;0.10;0.10;;;4.70;99.90;;;;;;5050493;28;20538;-62
2022/04/11 00:43:05;;;;;;;0.57;0.57;;;4.70;99.90;;;;;;5050699;28;20503;-62
2022/04/11 00:45:31;;;;;;;0.10;0.10;;;4.70;99.90;;;;;;5049931;28;20090;-62
2022/04/11 00:47:57;;;;;;;0.10;0.10;;;4.70;99.90;;;;;;5050617;28;20086;-63
2022/04/11 00:50:23;;;;;;;0.10;0.10;;;4.70;99.90;;;;;;5050035;28;20392;-61
2022/04/11 00:52:55;;;;;;;0.10;0.10;;;4.70;99.90;;;;;;5049113;28;20072;-62
2022/04/11 00:55:23;;;;;;;0.10;0.10;;;4.70;99.90;;;;;;5042594;23;20052;-65
2022/04/11 00:57:48;;;;;;;0.10;0.10;;;4.70;99.90;;;;;;5009906;28;20033;-65
2022/04/11 01:00:15;;;;;;;0.10;0.10;;;4.70;99.90;;;;;;5009805;28;20048;-65
2022/04/11 01:02:41;;;;;;;0.10;0.10;;;4.70;99.90;;;;;;5010441;28;20065;-65
2022/04/11 01:05:09;;;;;;;0.10;0.10;;;4.70;99.90;;;;;;5031655;28;20052;-64
2022/04/11 01:07:37;;;;;;;0.10;0.10;;;4.60;99.90;;;;;;5050082;28;20029;-65
2022/04/11 01:10:04;;;;;;;0.10;0.10;;;4.70;99.90;;;;;;5049627;28;20017;-65
2022/04/11 01:12:30;;;;;;;0.65;0.65;;;4.60;99.90;;;;;;5045434;28;20096;-65
2022/04/11 01:14:56;;;;;;;0.35;0.35;;;4.60;99.90;;;;;;5029806;28;20109;-65
2022/04/11 01:17:35;;;;;;;0.10;0.10;;;4.60;99.90;;;;;;5029854;28;20061;-64
2022/04/11 01:20:08;;;;;;;0.10;0.10;;;4.60;99.90;;;;;;5029188;28;20079;-64
2022/04/11 01:22:34;;;;;;;0.55;0.55;;;4.60;99.90;;;;;;5032237;28;20017;-65
2022/04/11 01:25:01;;;;;;;0.10;0.10;;;4.60;99.90;;;;;;5049659;28;20067;-64
2022/04/11 01:27:27;;;;;;;0.10;0.10;;;4.60;99.90;;;;;;5047264;28;20097;-64
2022/04/11 01:29:53;;;;;;;0.10;0.10;;;4.60;99.90;;;;;;5028696;28;20025;-63
2022/04/11 01:32:18;;;;;;;0.28;0.28;;;4.60;99.90;;;;;;5029594;28;20033;-65
2022/04/11 01:34:44;;;;;;;0.10;0.10;;;4.60;99.90;;;;;;5011706;28;20033;-65
2022/04/11 01:37:09;;;;;;;0.22;0.22;;;4.60;99.90;;;;;;5029707;28;20033;-64
2022/04/11 01:39:37;;;;;;;0.10;0.10;;;4.60;99.90;;;;;;5029727;28;20029;-65
2022/04/11 01:42:02;;;;;;;0.10;0.10;;;4.60;99.90;;;;;;5029448;28;20083;-65
2022/04/11 01:44:28;;;;;;;0.10;0.10;;;4.50;99.90;;;;;;5029530;28;20112;-64
2022/04/11 01:46:54;;;;;;;0.10;0.10;;;4.60;99.90;;;;;;5029408;28;20033;-63
2022/04/11 01:49:19;;;;;;;0.70;0.57;;;4.60;99.90;;;;;;5029636;28;20033;-65
2022/04/11 01:51:45;;;;;;;0.10;0.10;;;4.60;99.90;;;;;;5029110;28;20485;-65
2022/04/11 01:54:10;;;;;;;0.10;0.10;;;4.70;99.90;;;;;;5035785;28;20108;-64
2022/04/11 01:56:36;;;;;;;5.78;2.05;;;4.60;99.90;;;;;;5031740;28;20064;-64
2022/04/11 01:59:02;;;;;;;0.10;0.10;;;4.60;99.90;;;;;;5029281;28;20658;-64
2022/04/11 02:01:27;;;;;;;0.10;0.10;;;4.60;99.90;;;;;;5047811;28;20029;-64
2022/04/11 02:03:53;;;;;;;0.22;0.22;;;4.60;99.90;;;;;;5043603;28;20045;-64
2022/04/11 02:06:18;;;;;;;0.40;0.40;;;4.60;99.90;;;;;;5028823;28;20065;-65
2022/04/11 02:08:44;;;;;;;0.10;0.10;;;4.60;99.90;;;;;;5029421;28;20028;-64
2022/04/11 02:11:11;;;;;;;0.10;0.10;;;4.50;99.90;;;;;;5019339;28;20555;-64
2022/04/11 02:13:36;;;;;;;0.20;0.20;;;4.50;99.90;;;;;;5044287;28;20028;-65
2022/04/11 02:16:02;;;;;;;0.30;0.30;;;4.50;99.90;;;;;;5048854;28;20025;-64
2022/04/11 02:18:28;;;;;;;0.10;0.10;;;4.50;99.90;;;;;;5049168;28;20421;-65
2022/04/11 02:20:53;;;;;;;0.13;0.13;;;4.50;99.90;;;;;;5048101;28;20025;-64
2022/04/11 02:23:19;;;;;;;0.10;0.10;;;4.50;99.90;;;;;;5049180;28;20086;-64
2022/04/11 02:25:44;;;;;;;10.43;2.75;;;4.40;99.90;;;;;;5029230;28;20410;-64
2022/04/11 02:28:10;;;;;;;1.00;1.00;;;4.50;99.90;;;;;;5029981;28;20036;-65
2022/04/11 02:30:36;;;;;;;0.90;0.90;;;4.60;99.90;;;;;;5029059;28;20396;-64
2022/04/11 02:33:02;;;;;;;0.10;0.10;;;4.60;99.90;;;;;;5029345;28;20531;-65
2022/04/11 02:35:28;;;;;;;0.10;0.10;;;4.60;99.90;;;;;;5029528;28;20025;-64
2022/04/11 02:37:53;;;;;;;0.10;0.10;;;5.80;99.90;;;;;;5048934;28;20074;-64
2022/04/11 02:40:19;;;;;;;0.10;0.10;;;4.70;99.90;;;;;;5049512;28;20388;-64
2022/04/11 02:42:45;;;;;;;0.10;0.10;;;4.70;99.90;;;;;;5048072;28;20143;-66
2022/04/11 02:45:13;;;;;;;0.10;0.10;;;4.60;99.90;;;;;;5032643;28;20032;-63
2022/04/11 02:47:39;;;;;;;0.90;0.90;;;4.50;99.90;;;;;;5032742;28;20026;-63
2022/04/11 02:50:06;;;;;;;0.10;0.10;;;4.50;99.90;;;;;;5035947;28;20025;-62
2022/04/11 02:52:32;;;;;;;0.10;0.10;;;4.50;99.90;;;;;;5052537;28;20017;-65
2022/04/11 02:54:58;;;;;;;0.10;0.10;;;4.50;99.90;;;;;;5039552;28;20172;-65
2022/04/11 02:57:24;;;;;;;0.10;0.10;;;4.50;99.90;;;;;;5032515;28;20025;-64
2022/04/11 02:59:50;;;;;;;0.10;0.10;;;4.50;99.90;;;;;;5037538;28;20021;-65
2022/04/11 03:02:16;;;;;;;0.10;0.10;;;4.70;99.90;;;;;;5046659;28;20025;-65
2022/04/11 03:04:42;;;;;;;0.10;0.10;;;4.50;99.90;;;;;;5031955;28;20388;-64
2022/04/11 03:07:07;;;;;;;0.10;0.10;;;4.40;99.90;;;;;;5032170;28;20476;-65
2022/04/11 03:09:33;;;;;;;0.10;0.10;;;4.40;99.90;;;;;;5032418;28;20022;-64
2022/04/11 03:11:59;;;;;;;0.10;0.10;;;4.40;99.90;;;;;;5048340;28;20029;-65
2022/04/11 03:14:25;;;;;;;0.10;0.10;;;4.40;99.90;;;;;;5051143;28;20105;-65
2022/04/11 03:16:50;;;;;;;0.10;0.10;;;4.40;99.90;;;;;;5052273;28;20100;-65
2022/04/11 03:19:16;;;;;;;2.75;1.38;;;4.40;99.90;;;;;;5048622;28;20061;-65
2022/04/11 03:21:42;;;;;;;0.10;0.10;;;4.40;99.90;;;;;;5034227;28;20056;-64
2022/04/11 03:24:08;;;;;;;0.63;0.63;;;4.40;99.90;;;;;;5031618;28;20034;-65
2022/04/11 03:26:34;;;;;;;0.10;0.10;;;4.40;99.90;;;;;;5031870;28;20056;-65
2022/04/11 03:28:59;;;;;;;0.10;0.10;;;4.40;99.90;;;;;;5031960;28;20053;-65
2022/04/11 03:31:25;;;;;;;0.10;0.10;;;4.40;99.90;;;;;;5031623;28;20068;-63
2022/04/11 03:33:51;;;;;;;0.10;0.10;;;4.40;99.90;;;;;;5031911;28;20131;-64
2022/04/11 03:36:17;;;;;;;0.10;0.10;;;4.40;99.90;;;;;;5032046;28;20057;-65
2022/04/11 03:38:42;;;;;;;0.10;0.10;;;4.40;99.90;;;;;;5031927;28;20039;-68
2022/04/11 03:41:08;;;;;;;0.10;0.10;;;4.40;99.90;;;;;;5031831;28;20049;-65
2022/04/11 03:43:34;;;;;;;0.10;0.10;;;4.30;99.90;;;;;;5031529;28;20558;-66
2022/04/11 03:46:00;;;;;;;0.10;0.10;;;4.40;99.90;;;;;;5032181;28;20517;-65
2022/04/11 03:48:25;;;;;;;1.10;1.10;;;4.40;99.90;;;;;;5051414;28;20484;-65
2022/04/11 03:50:51;;;;;;;0.52;0.52;;;4.50;99.90;;;;;;5051109;28;20480;-64
2022/04/11 03:53:17;;;;;;;0.10;0.10;;;4.40;99.90;;;;;;5050480;28;20108;-64
2022/04/11 03:55:42;;;;;;;0.10;0.10;;;4.30;99.90;;;;;;5035670;28;20106;-64
2022/04/11 03:58:08;;;;;;;0.10;0.10;;;4.30;99.90;;;;;;5033656;28;20499;-65
2022/04/11 04:00:34;;;;;;;0.10;0.10;;;4.30;99.90;;;;;;5050983;28;20481;-64
2022/04/11 04:03:11;;;;;;;0.10;0.10;;;4.30;99.90;;;;;;5049914;28;20060;-65
2022/04/11 04:05:44;;;;;;;0.10;0.10;;;4.30;99.90;;;;;;5050689;28;20029;-65
2022/04/11 04:08:11;;;;;;;0.10;0.10;;;4.40;99.90;;;;;;5050858;28;20105;-64
2022/04/11 04:10:37;;;;;;;0.10;0.10;;;4.30;99.90;;;;;;5043557;28;20030;-64
2022/04/11 04:13:03;;;;;;;0.10;0.10;;;4.30;99.90;;;;;;5041516;28;20096;-64
2022/04/11 04:15:29;;;;;;;0.30;0.30;;;4.30;99.90;;;;;;5050953;28;20103;-64
2022/04/11 04:17:56;;;;;;;0.10;0.10;;;4.30;99.90;;;;;;5033879;28;20033;-64
2022/04/11 04:20:23;;;;;;;0.13;0.13;;;4.30;99.90;;;;;;5037474;28;20106;-64
2022/04/11 04:22:49;;;;;;;0.57;0.57;;;4.20;99.90;;;;;;5050955;28;20025;-64
2022/04/11 04:25:15;;;;;;;0.20;0.20;;;4.20;99.90;;;;;;5050325;28;20028;-65
2022/04/11 04:27:40;;;;;;;0.10;0.10;;;4.30;99.90;;;;;;5050799;28;20028;-66
2022/04/11 04:30:06;;;;;;;0.25;0.25;;;4.30;99.90;;;;;;5049752;28;20393;-65
2022/04/11 04:32:32;;;;;;;0.40;0.40;;;4.30;99.90;;;;;;5050938;28;20032;-66
2022/04/11 04:34:58;;;;;;;0.10;0.10;;;4.30;99.90;;;;;;5050795;28;20028;-64
2022/04/11 04:37:23;;;;;;;0.10;0.10;;;4.20;99.90;;;;;;5049567;28;20029;-65
2022/04/11 04:39:49;;;;;;;0.30;0.30;;;4.20;99.90;;;;;;5049918;28;20392;-66
2022/04/11 04:42:22;;;;;;;0.10;0.10;;;4.10;99.90;;;;;;5049596;28;20057;-64
2022/04/11 04:44:47;;;;;;;0.10;0.10;;;4.10;99.90;;;;;;5030500;28;20105;-65
2022/04/11 04:47:15;;;;;;;0.80;0.80;;;4.00;99.90;;;;;;5030518;28;20109;-64
2022/04/11 04:49:41;;;;;;;0.10;0.10;;;4.00;99.90;;;;;;5030420;28;20014;-66
2022/04/11 04:52:07;;;;;;;0.73;0.73;;;4.00;99.90;;;;;;5030000;28;20056;-65
2022/04/11 04:54:33;;;;;;;0.70;0.70;;;4.00;99.90;;;;;;5049735;28;20024;-65
2022/04/11 04:56:58;;;;;;;0.10;0.10;;;4.00;99.90;;;;;;5050127;28;20036;-65
2022/04/11 04:59:24;;;;;;;0.15;0.15;;;4.10;99.90;;;;;;5050266;28;20452;-64
2022/04/11 05:01:50;;;;;;;0.10;0.10;;;4.00;99.90;;;;;;5042180;28;20037;-67
2022/04/11 05:04:16;;;;;;;0.20;0.20;;;4.00;99.90;;;;;;5029895;28;20076;-65
2022/04/11 05:06:41;;;;;;;0.63;0.55;;;4.00;99.90;;;;;;5030177;28;20134;-64
2022/04/11 05:09:07;;;;;;;2.97;2.80;;;4.00;99.90;;;;;;5030005;28;20049;-65
2022/04/11 05:11:33;;;;;;;0.10;0.10;;;4.10;99.90;;;;;;5029778;28;20035;-66
2022/04/11 05:13:58;;;;;;;0.13;0.13;;;4.10;99.90;;;;;;5032234;28;20045;-64
2022/04/11 05:16:24;;;;;;;1.02;1.02;;;4.20;99.90;;;;;;5028468;28;20447;-64
2022/04/11 05:18:49;;;;;;;0.10;0.10;;;4.10;99.90;;;;;;5043850;28;20531;-65
2022/04/11 05:21:15;;;;;;;0.17;0.17;;;4.10;99.90;;;;;;5029609;28;20392;-66
2022/04/11 05:23:41;;;;;;;0.15;0.15;;;4.10;99.90;;;;;;5029659;28;20025;-65
2022/04/11 05:26:07;;;;;;;0.10;0.10;;;4.10;99.90;;;;;;5029580;28;20158;-65
2022/04/11 05:28:34;;;;;;;0.30;0.30;;;4.10;99.90;;;;;;5029681;28;20049;-65
2022/04/11 05:31:01;;;;;;;0.32;0.32;;;4.10;99.90;;;;;;5029466;28;20037;-64
2022/04/11 05:33:26;;;;;;;0.10;0.10;;;4.10;99.90;;;;;;5029878;28;20029;-65
2022/04/11 05:35:53;;;;;;;0.10;0.10;;;4.10;99.90;;;;;;5029642;28;20079;-66
2022/04/11 05:38:19;;;;;;;0.10;0.10;;;4.70;99.90;;;;;;5029593;28;20051;-65
2022/04/11 05:40:45;;;;;;;0.10;0.10;;;4.20;99.90;;;;;;5030369;28;20194;-65
2022/04/11 05:43:14;;;;;;;0.10;0.10;;;4.20;99.90;;;;;;5049790;28;20025;-66
2022/04/11 05:45:43;;;;;;;0.10;0.10;;;4.30;99.90;;;;;;5048158;28;20500;-65
2022/04/11 05:48:09;;;;;;;1.10;1.10;;;4.30;99.90;;;;;;5048284;28;20029;-66
2022/04/11 05:50:35;;;;;;;0.10;0.10;;;4.10;99.90;;;;;;5049494;28;20538;-65
2022/04/11 05:53:04;;;;;;;0.10;0.10;;;4.30;99.90;;;;;;5035933;28;20197;-67
2022/04/11 05:55:30;;;;;;;0.10;0.10;;;4.30;99.90;;;;;;5029375;28;20033;-67
2022/04/11 05:57:56;;;;;;;0.25;0.25;;;4.40;99.90;;;;;;5035923;28;20028;-65
2022/04/11 06:00:22;;;;;;;0.10;0.10;;;4.40;99.90;;;;;;5047987;28;20033;-65
2022/04/11 06:02:48;;;;;;;0.10;0.10;;;4.40;99.90;;;;;;5032192;28;20437;-65
2022/04/11 06:05:14;;;;;;;0.10;0.10;;;4.50;99.90;;;;;;5028980;28;20273;-67
2022/04/11 06:07:40;;;;;;;0.10;0.10;;;4.60;99.90;;;;;;5029420;28;20457;-65
2022/04/11 06:10:07;;;;;;;0.10;0.10;;;4.60;99.90;;;;;;5028869;28;20100;-65
2022/04/11 06:12:33;;;;;;;0.65;0.65;;;4.60;99.90;;;;;;5032557;28;20028;-68
2022/04/11 06:14:59;;;;;;;0.10;0.10;;;4.60;99.90;;;;;;5049247;28;20484;-65
2022/04/11 06:17:25;;;;;;;0.10;0.10;;;4.70;99.90;;;;;;5053004;28;20080;-65
2022/04/11 06:19:58;;;;;;;0.10;0.10;;;4.80;99.90;;;;;;5022360;28;20387;-67
2022/04/11 06:22:25;;;;;;;0.10;0.10;;;4.80;99.90;;;;;;5033483;28;20046;-64
2022/04/11 06:24:51;;;;;;;0.10;0.10;;;4.80;99.90;;;;;;5033043;28;20029;-66
2022/04/11 06:27:20;;;;;;;0.10;0.10;;;4.90;99.90;;;;;;5035414;28;20033;-65
2022/04/11 06:29:46;;;;;;;0.10;0.10;;;4.90;99.90;;;;;;5033012;28;20018;-65
2022/04/11 06:32:12;;;;;;;0.10;0.10;;;5.00;99.90;;;;;;5032947;28;20025;-64
2022/04/11 06:34:38;;;;;;;0.10;0.10;;;5.10;99.90;;;;;;5032863;28;20022;-64
2022/04/11 06:37:04;;;;;;;0.10;0.10;;;5.20;99.90;;;;;;5051406;28;20507;-67
2022/04/11 06:39:30;;;;;;;0.60;0.60;;;5.20;99.90;;;;;;5052621;28;20040;-64
2022/04/11 06:41:56;;;;;;;0.15;0.15;;;5.30;99.90;;;;;;5052085;28;20029;-65
2022/04/11 06:44:22;;;;;;;0.10;0.10;;;5.40;99.90;;;;;;5052588;28;20029;-66
2022/04/11 06:46:48;;;;;;;0.55;0.55;;;5.50;99.90;;;;;;5033257;28;20034;-65
2022/04/11 06:49:13;;;;;;;0.17;0.17;;;5.60;99.90;;;;;;5032652;28;20394;-65
2022/04/11 06:51:39;;;;;;;0.10;0.10;;;5.60;99.90;;;;;;5032217;28;20495;-65
2022/04/11 06:54:05;;;;;;;0.10;0.10;;;5.70;99.90;;;;;;5044508;28;20147;-66
2022/04/11 06:56:31;;;;;;;0.15;0.15;;;5.80;99.90;;;;;;5049054;22;20057;-63
2022/04/11 06:58:56;;;;;;;1.40;1.38;;;5.90;99.90;;;;;;5011976;28;20049;-64
2022/04/11 07:01:22;;;;;;;0.10;0.10;;;6.00;99.90;;;;;;5012229;28;20664;-63
2022/04/11 07:03:48;;;;;;;0.10;0.10;;;6.10;99.90;;;;;;5012215;28;20080;-62
2022/04/11 07:06:14;;;;;;;0.10;0.10;;;6.10;99.90;;;;;;5012138;28;20452;-62
2022/04/11 07:08:39;;;;;;;0.10;0.10;;;6.20;99.90;;;;;;5012528;28;20109;-62
2022/04/11 07:11:06;;;;;;;0.10;0.10;;;6.30;99.90;;;;;;5012758;28;20477;-64
2022/04/11 07:13:33;;;;;;;0.10;0.10;;;6.40;99.90;;;;;;5011868;28;20014;-62
2022/04/11 07:15:59;;;;;;;0.10;0.10;;;6.50;99.90;;;;;;5012622;28;20041;-63
2022/04/11 07:18:27;;;;;;;2.42;2.30;;;6.60;99.90;;;;;;4994905;28;20052;-63
2022/04/11 07:20:53;;;;;;;0.20;0.20;;;6.80;99.90;;;;;;5012509;28;20080;-65
2022/04/11 07:23:18;;;;;;;0.10;0.10;;;6.90;99.90;;;;;;5012149;28;20037;-63
2022/04/11 07:25:44;;;;;;;0.20;0.20;;;7.10;99.90;;;;;;5012439;28;20033;-63
2022/04/11 07:28:10;;;;;;;0.10;0.10;;;7.30;99.90;;;;;;5011103;28;20061;-61
2022/04/11 07:30:36;;;;;;;0.10;0.10;;;7.40;99.90;;;;;;4990866;28;20018;-63
2022/04/11 07:33:01;;;;;;;0.10;0.10;;;7.60;99.90;;;;;;5010036;28;20088;-63
2022/04/11 07:35:27;;;;;;;0.10;0.10;;;7.70;99.90;;;;;;5012292;28;20037;-64
2022/04/11 07:37:53;;;;;;;0.40;0.40;;;7.80;99.90;;;;;;5011887;28;20079;-63
2022/04/11 07:40:18;;;;;;;0.10;0.10;;;8.00;99.90;;;;;;5011968;28;20042;-65
2022/04/11 07:42:44;;;;;;;0.10;0.10;;;8.10;99.90;;;;;;5012225;28;20029;-63
2022/04/11 07:45:10;;;;;;;0.10;0.10;;;8.20;99.90;;;;;;5011947;28;20673;-65
2022/04/11 07:47:36;;;;;;;0.10;0.10;;;8.30;99.90;;;;;;4995130;28;20076;-63
2022/04/11 07:50:02;;;;;;;0.10;0.10;;;8.30;99.90;;;;;;4992204;28;20030;-61
2022/04/11 07:52:28;;;;;;;0.10;0.10;;;8.40;99.90;;;;;;4992506;28;20060;-64
2022/04/11 07:54:54;;;;;;;0.30;0.30;;;8.50;99.90;;;;;;4992150;28;20062;-63
2022/04/11 07:57:19;;;;;;;0.10;0.10;;;8.60;99.90;;;;;;5008205;28;20034;-65
2022/04/11 07:59:45;;;;;;;0.10;0.10;;;8.70;99.90;;;;;;5010668;28;20041;-71
2022/04/11 08:02:11;;;;;;;0.10;0.10;;;8.70;99.90;;;;;;4993905;28;20058;-69
2022/04/11 08:04:36;;;;;;;0.10;0.10;;;8.70;99.90;;;;;;5009689;28;20536;-72
2022/04/11 08:07:02;;;;;;;0.10;0.10;;;8.70;99.90;;;;;;4992146;28;20390;-63
2022/04/11 08:09:29;;;;;;;0.00;0.00;;;8.90;99.90;;;;;;4992319;28;20041;-63
2022/04/11 08:11:55;;;;;;;0.10;0.10;;;9.00;99.90;;;;;;4993333;28;20029;-64
2022/04/11 08:14:21;;;;;;;0.10;0.10;;;9.20;99.90;;;;;;5010767;28;20401;-64
2022/04/11 08:16:46;;;;;;;0.10;0.10;;;9.30;99.90;;;;;;5011643;28;20504;-65
2022/04/11 08:19:12;;;;;;;0.20;0.20;;;9.20;99.90;;;;;;5011689;28;20405;-64
2022/04/11 08:21:38;;;;;;;0.10;0.10;;;9.40;99.90;;;;;;5011310;28;20033;-64
2022/04/11 08:24:04;;;;;;;0.10;0.10;;;9.50;99.90;;;;;;4975063;28;20035;-67
2022/04/11 08:26:30;;;;;;;0.10;0.10;;;9.50;99.90;;;;;;4991709;28;20115;-64
2022/04/11 08:28:55;;;;;;;0.10;0.10;;;9.60;99.90;;;;;;5005550;28;20030;-64
2022/04/11 08:31:21;;;;;;;0.10;0.10;;;9.70;99.90;;;;;;5010759;28;20022;-64
2022/04/11 08:33:47;;;;;;;0.10;0.10;;;9.80;99.90;;;;;;5011616;28;20397;-65
2022/04/11 08:36:12;;;;;;;0.10;0.10;;;10.00;99.90;;;;;;5011170;28;20474;-65
2022/04/11 08:38:38;;;;;;;0.10;0.10;;;10.00;99.90;;;;;;5000812;28;20100;-62
2022/04/11 08:41:04;;;;;;;0.10;0.10;;;10.00;99.90;;;;;;4999375;28;20458;-65
2022/04/11 08:43:32;;;;;;;0.10;0.10;;;10.20;99.90;;;;;;5001261;28;20050;-65
2022/04/11 08:46:02;;;;;;;0.10;0.10;;;10.20;99.90;;;;;;5001837;28;20022;-65
2022/04/11 08:48:28;;;;;;;0.10;0.10;;;10.30;99.90;;;;;;5000411;28;20076;-65
2022/04/11 08:50:54;;;;;;;0.10;0.10;;;10.40;99.90;;;;;;5000356;28;20027;-65
2022/04/11 08:53:23;;;;;;;0.10;0.10;;;10.40;99.50;;;;;;5001878;28;20037;-66
2022/04/11 08:55:49;;;;;;;0.10;0.10;;;10.50;99.30;;;;;;5007909;28;20509;-67
2022/04/11 08:58:15;;;;;;;0.10;0.10;;;10.70;98.20;;;;;;5010578;28;20060;-66
2022/04/11 09:00:41;;;;;;;0.10;0.10;;;10.70;96.80;;;;;;5010062;28;20038;-67
2022/04/11 09:03:08;;;;;;;0.10;0.10;;;10.90;96.50;;;;;;5008594;28;20038;-66
2022/04/11 09:05:34;;;;;;;3.78;3.40;;;10.90;96.20;;;;;;5010823;28;20029;-65
2022/04/11 09:08:00;;;;;;;0.10;0.10;;;11.00;95.80;;;;;;5011488;28;20053;-64
2022/04/11 09:10:28;;;;;;;0.10;0.10;;;11.00;95.20;;;;;;5011299;28;20030;-65
2022/04/11 09:12:56;;;;;;;0.10;0.10;;;11.10;94.30;;;;;;5010332;28;20021;-63
2022/04/11 09:15:25;;;;;;;1.42;1.33;;;11.20;93.40;;;;;;5026071;28;20048;-64
2022/04/11 09:17:53;;;;;;;0.10;0.10;;;11.30;93.30;;;;;;5030025;28;20111;-64
2022/04/11 09:20:29;;;;;;;0.10;0.10;;;11.40;93.30;;;;;;5024933;28;20029;-65
2022/04/11 09:22:56;;;;;;;0.10;0.10;;;11.40;92.20;;;;;;5010462;28;20152;-65
2022/04/11 09:25:24;;;;;;;0.10;0.10;;;11.40;91.90;;;;;;5009881;28;20022;-64
2022/04/11 09:28:10;;;;;;;0.00;0.00;;;11.50;91.10;;;;;;5010413;28;20025;-64
2022/04/11 09:30:37;;;;;;;0.10;0.10;;;11.70;91.30;;;;;;4999594;28;20022;-66
2022/04/11 09:33:08;;;;;;;0.10;0.10;;;11.90;90.80;;;;;;4994333;28;20026;-64
2022/04/11 09:35:44;;;;;;;0.35;0.35;;;11.90;90.40;;;;;;4998203;28;20023;-64
2022/04/11 09:38:11;;;;;;;0.10;0.10;;;12.00;87.00;;;;;;4999450;28;20101;-64
2022/04/11 09:40:44;;;;;;;0.10;0.10;;;11.90;88.40;;;;;;5000171;28;20049;-64
2022/04/11 09:43:12;;;;;;;0.10;0.10;;;12.00;83.60;;;;;;5001007;28;20053;-65
2022/04/11 09:45:42;;;;;;;0.10;0.10;;;12.20;82.10;;;;;;4995535;28;20023;-64
2022/04/11 09:48:09;;;;;;;0.10;0.10;;;12.10;81.30;;;;;;4995520;28;20385;-64
2022/04/11 09:50:35;;;;;;;0.00;0.00;;;12.20;80.40;;;;;;5009110;28;20097;-65
2022/04/11 09:53:11;;;;;;;0.10;0.10;;;12.40;78.80;;;;;;5010226;28;20129;-65
2022/04/11 09:55:38;;;;;;;0.10;0.10;;;12.00;79.10;;;;;;5009266;28;20117;-63
2022/04/11 09:58:05;;;;;;;0.10;0.10;;;12.50;77.70;;;;;;5009504;28;20137;-64
2022/04/11 10:00:36;;;;;;;0.00;0.00;;;12.70;77.00;;;;;;5009779;28;20033;-62
2022/04/11 10:03:03;;;;;;;0.00;0.00;;;12.70;76.30;;;;;;5009874;28;20022;-64
2022/04/11 10:05:29;;;;;;;0.10;0.10;;;12.70;75.00;;;;;;5002982;28;20425;-63
2022/04/11 10:07:55;;;;;;;0.10;0.10;;;12.80;75.20;;;;;;4990632;28;20026;-63
2022/04/11 10:10:24;;;;;;;0.10;0.10;;;12.80;73.80;;;;;;4990242;28;20106;-63
2022/04/11 10:12:53;;;;;;;0.10;0.10;;;12.90;73.60;;;;;;4999004;28;20029;-64
2022/04/11 10:15:21;;;;;;;0.10;0.10;;;13.10;72.90;;;;;;5009314;28;20026;-64
2022/04/11 10:17:49;;;;;;;0.10;0.10;;;13.00;72.10;;;;;;5009755;28;20084;-62
2022/04/11 10:20:26;;;;;;;0.00;0.00;;;13.10;69.80;;;;;;5009751;28;20022;-64
2022/04/11 10:23:08;;;;;;;0.10;0.10;;;13.10;68.10;;;;;;5009297;28;20030;-64
2022/04/11 10:25:43;;;;;;;0.00;0.00;;;13.30;66.80;;;;;;4990350;28;20031;-64
2022/04/11 10:28:23;;;;;;;0.00;0.00;;;13.30;65.90;;;;;;4990286;28;20026;-65
2022/04/11 10:31:12;;;;;;;0.10;0.10;;;13.40;65.00;;;;;;4991063;28;20075;-64
2022/04/11 10:33:52;;;;;;;0.00;0.00;;;13.60;64.00;;;;;;5009648;28;20017;-64
2022/04/11 10:36:36;;;;;;;0.10;0.10;;;13.60;61.80;;;;;;5009623;28;20058;-62
2022/04/11 10:39:17;;;;;;;0.00;0.00;;;13.70;61.40;;;;;;5009558;28;20057;-63
2022/04/11 10:41:54;;;;;;;0.00;0.00;;;13.70;60.30;;;;;;5009536;28;20022;-68
2022/04/11 10:44:35;;;;;;;0.00;0.00;;;13.80;60.80;;;;;;5009712;28;20033;-66
2022/04/11 10:47:12;;;;;;;0.00;0.00;;;13.70;59.60;;;;;;5009731;28;20093;-64
2022/04/11 10:49:50;;;;;;;0.10;0.10;;;13.80;59.80;;;;;;5009373;28;20034;-63
2022/04/11 10:52:29;;;;;;;0.00;0.00;;;13.80;59.40;;;;;;5004988;28;20026;-64
2022/04/11 10:55:15;;;;;;;0.03;0.03;;;13.80;58.20;;;;;;5008847;28;20485;-63
2022/04/11 10:57:44;;;;;;;0.10;0.10;;;13.90;58.20;;;;;;5009574;28;20048;-64
2022/04/11 11:00:11;;;;;;;0.10;0.10;;;14.00;58.40;;;;;;5009290;28;20025;-67
2022/04/11 11:02:52;;;;;;;0.52;0.43;;;14.00;58.10;;;;;;5011536;28;20039;-62
2022/04/11 11:05:38;;;;;;;0.10;0.10;;;14.10;58.60;;;;;;5011985;28;20025;-65
2022/04/11 11:08:09;;;;;;;0.10;0.10;;;14.10;58.40;;;;;;5013070;28;20488;-65
2022/04/11 11:10:42;;;;;;;0.00;0.00;;;14.00;58.50;;;;;;5012708;28;20032;-65
2022/04/11 11:13:34;;;;;;;0.10;0.10;;;14.00;58.90;;;;;;5012780;28;20022;-66
2022/04/11 11:16:20;;;;;;;0.10;0.10;;;14.00;59.10;;;;;;4993736;28;20038;-65
2022/04/11 11:18:48;;;;;;;0.10;0.10;;;14.00;58.70;;;;;;5012494;28;20033;-65
2022/04/11 11:21:33;;;;;;;0.05;0.05;;;14.20;58.80;;;;;;4994896;28;20018;-65
2022/04/11 11:24:06;;;;;;;0.00;0.00;;;14.30;58.00;;;;;;5012208;28;20030;-63
2022/04/11 11:26:53;;;;;;;0.00;0.00;;;14.40;57.40;;;;;;5012649;28;20030;-64
2022/04/11 11:29:39;;;;;;;0.00;0.00;;;14.50;56.90;;;;;;5012787;28;20028;-65
2022/04/11 11:32:06;;;;;;;0.00;0.00;;;14.60;55.90;;;;;;5005848;28;20128;-67
2022/04/11 11:34:36;;;;;;;0.10;0.10;;;14.70;55.30;;;;;;4992723;28;20037;-67
2022/04/11 11:37:07;;;;;;;0.10;0.10;;;14.70;54.90;;;;;;4992737;28;20057;-64
2022/04/11 11:39:38;;;;;;;0.10;0.10;;;14.70;53.60;;;;;;4992847;28;20110;-69
2022/04/11 11:42:06;;;;;;;0.00;0.00;;;14.50;54.10;;;;;;4993315;28;20027;-66
2022/04/11 11:44:40;;;;;;;0.10;0.10;;;14.50;54.40;;;;;;4992788;28;20080;-67
2022/04/11 11:47:06;;;;;;;0.10;0.10;;;14.60;55.10;;;;;;5001833;28;20029;-64
2022/04/11 11:49:41;;;;;;;0.00;0.00;;;14.70;54.00;;;;;;5007149;28;20541;-64
2022/04/11 11:52:20;;;;;;;0.00;0.00;;;14.70;53.80;;;;;;5001312;28;20029;-64
2022/04/11 11:54:48;;;;;;;0.10;0.10;;;14.70;53.60;;;;;;5012260;28;20024;-67
2022/04/11 11:57:24;;;;;;;0.00;0.00;;;14.80;53.50;;;;;;5011351;28;20034;-62
2022/04/11 12:00:08;;;;;;;0.10;0.10;;;14.80;53.50;;;;;;5011762;28;20033;-63
2022/04/11 12:05:33;;;;;;;0.05;0.05;;;15.00;53.00;;;;;;5011598;28;20036;-65
2022/04/11 12:08:04;;;;;;;0.10;0.10;;;15.10;53.40;;;;;;4992175;28;20061;-64
2022/04/11 12:10:31;;;;;;;0.10;0.10;;;15.10;53.30;;;;;;4974257;28;20461;-64
2022/04/11 12:12:57;;;;;;;0.10;0.10;;;15.20;53.00;;;;;;5001229;28;20053;-63
2022/04/11 12:15:23;;;;;;;0.08;0.08;;;15.20;52.20;;;;;;5010730;28;20022;-63
2022/04/11 12:18:03;;;;;;;0.10;0.10;;;15.30;51.30;;;;;;5011699;28;20404;-64
2022/04/11 12:20:33;;;;;;;0.70;0.70;;;15.30;51.10;;;;;;5010980;28;20061;-66
2022/04/11 12:23:02;;;;;;;0.10;0.10;;;15.50;50.90;;;;;;5010461;28;20076;-65
2022/04/11 12:25:33;;;;;;;0.10;0.10;;;15.50;50.40;;;;;;4991930;28;20067;-65
2022/04/11 12:28:19;;;;;;;0.00;0.00;;;15.50;49.80;;;;;;4992072;28;20057;-63
2022/04/11 12:31:06;;;;;;;0.03;0.03;;;15.60;50.20;;;;;;4991769;28;20041;-66
2022/04/11 12:33:39;;;;;;;0.05;0.05;;;15.60;49.60;;;;;;5007775;28;20104;-64
2022/04/11 12:36:05;;;;;;;0.00;0.00;;;15.80;49.60;;;;;;5011213;28;20072;-65
2022/04/11 12:38:47;;;;;;;0.10;0.10;;;15.90;49.50;;;;;;5011586;28;20034;-64
2022/04/11 12:41:40;;;;;;;0.00;0.00;;;16.20;49.20;;;;;;5010616;28;20475;-65
2022/04/11 12:44:11;;;;;;;0.00;0.00;;;16.70;48.90;;;;;;5007138;28;20044;-67
2022/04/11 12:46:46;;;;;;;0.00;0.00;;;18.40;46.90;;;;;;5011284;28;20053;-66
2022/04/11 12:49:12;;;;;;;;;;;20.40;44.90;;;;;;5011666;28;20026;-65
2022/04/11 12:51:39;;;;;;;0.00;0.00;;;21.20;42.10;;;;;;5009996;28;19913;-69
2022/04/11 12:54:13;;;;;;;0.00;0.00;;;21.90;41.30;;;;;;5011026;28;20113;-66
2022/04/11 12:56:44;;;;;;;0.00;0.00;;;21.80;40.70;;;;;;5026420;23;20513;-67
2022/04/11 12:59:11;;;;;;;0.00;0.00;;;22.20;40.30;;;;;;5009063;28;20556;-68
2022/04/11 13:01:54;;;;;;;0.00;0.00;;;22.80;39.50;;;;;;5009428;28;20048;-67